ENFL/FRO METAR and TAF weather

Enter ICAO airport designator
Station Type Date Time Source
ENFL METAR 2024/04/18 08:20 UTC NOAA

ENFL 180820Z 12005KT 090V160 CAVOK 06/M05 Q1012


Station Type Date Time Source
ENFL Decoded METAR 2024/04/18 08:20 UTC NOAA

Floro, Norway (ENFL) 61-35N 005-02E 9M
Apr 18, 2024 - 04:20 AM EDT / 2024.04.18 0820 UTC
Wind: from the ESE (120 degrees) at 6 MPH (5 KT) (direction variable):0
Visibility: greater than 7 mile(s):0
Temperature: 42 F (6 C)
Dew Point: 23 F (-5 C)
Relative Humidity: 45%
Pressure (altimeter): 29.88 in. Hg (1012 hPa)
ob: ENFL 180820Z 12005KT 090V160 CAVOK 06/M05 Q1012
cycle: 8

Station Type Date Time Source
ENFL TAF 2010/02/05 07:50 UTC NOAA